Time;durP1;ratioP1;P1;durP2;ratioP2;P2;SDS_P1;SDS_P2;PMS_P1;PMS_P2;Temp;Humidity;BMP_temperature;BMP_pressure;BME280_temperature;BME280_humidity;BME280_pressure;Samples;Min_cycle;Max_cycle;Signal;HPM_P1;HPM_P2
2023/10/01 00:00:29;;;;;;;22.20;6.10;;;14.80;99.90;;;;;;5095195;28;20048;-80
2023/10/01 00:02:58;;;;;;;16.27;6.72;;;14.80;99.90;;;;;;5093855;28;20050;-79
2023/10/01 00:05:25;;;;;;;22.00;6.45;;;14.80;99.90;;;;;;5093608;28;20052;-80
2023/10/01 00:07:54;;;;;;;21.73;6.45;;;14.80;99.90;;;;;;5093464;28;20069;-79
2023/10/01 00:10:20;;;;;;;20.70;6.47;;;14.80;99.90;;;;;;5094971;28;20040;-80
2023/10/01 00:12:49;;;;;;;24.70;6.93;;;14.80;99.90;;;;;;5094858;28;20089;-79
2023/10/01 00:15:23;;;;;;;17.95;6.20;;;14.80;99.90;;;;;;5094910;28;20044;-80
2023/10/01 00:17:49;;;;;;;26.05;6.25;;;14.80;99.90;;;;;;5094411;28;20044;-79
2023/10/01 00:20:20;;;;;;;20.20;6.00;;;14.80;99.90;;;;;;5093537;28;20051;-80
2023/10/01 00:23:02;;;;;;;18.45;5.82;;;14.80;99.90;;;;;;5093400;28;20086;-79
2023/10/01 00:25:28;;;;;;;19.50;5.78;;;14.80;99.90;;;;;;5093608;28;20063;-80
2023/10/01 00:27:55;;;;;;;27.77;6.43;;;14.80;99.90;;;;;;5094472;28;20384;-80
2023/10/01 00:30:21;;;;;;;21.00;6.00;;;14.80;99.90;;;;;;5093292;28;20495;-79
2023/10/01 00:32:48;;;;;;;16.75;5.68;;;14.80;99.90;;;;;;5094560;28;20042;-80
2023/10/01 00:35:14;;;;;;;16.45;6.20;;;14.90;99.90;;;;;;5094381;28;20123;-79
2023/10/01 00:37:40;;;;;;;21.80;6.38;;;14.80;99.90;;;;;;5094191;28;20075;-80
2023/10/01 00:40:08;;;;;;;15.02;6.22;;;14.80;99.90;;;;;;5093407;28;20048;-80
2023/10/01 00:42:35;;;;;;;25.42;5.82;;;14.80;99.90;;;;;;5094380;28;20102;-80
2023/10/01 00:45:11;;;;;;;18.80;5.88;;;14.80;99.90;;;;;;5092836;28;20044;-80
2023/10/01 00:47:41;;;;;;;19.67;6.63;;;14.80;99.90;;;;;;5092975;28;20055;-80
2023/10/01 00:50:21;;;;;;;22.90;6.70;;;14.70;99.90;;;;;;5093182;28;20048;-80
2023/10/01 00:52:51;;;;;;;20.83;5.82;;;14.80;99.90;;;;;;5093284;28;20043;-80
2023/10/01 00:55:18;;;;;;;28.05;7.07;;;14.70;99.90;;;;;;5094214;28;20127;-80
2023/10/01 00:57:44;;;;;;;24.92;7.60;;;14.80;99.90;;;;;;5092673;28;20479;-80
2023/10/01 01:00:15;;;;;;;29.75;7.03;;;14.70;99.90;;;;;;5094137;28;20055;-79
2023/10/01 01:02:56;;;;;;;23.75;7.10;;;14.70;99.90;;;;;;5093093;28;20479;-80
2023/10/01 01:05:35;;;;;;;23.23;8.07;;;14.70;99.90;;;;;;5092777;28;20052;-80
2023/10/01 01:08:21;;;;;;;18.08;6.95;;;14.70;99.90;;;;;;5093904;28;20454;-80
2023/10/01 01:10:48;;;;;;;28.45;8.02;;;14.80;99.90;;;;;;5092814;28;20059;-79
2023/10/01 01:13:16;;;;;;;21.48;8.10;;;14.70;99.90;;;;;;5093934;28;20097;-80
2023/10/01 01:15:45;;;;;;;19.65;6.95;;;14.70;99.90;;;;;;5093921;28;20100;-80
2023/10/01 01:18:13;;;;;;;25.38;8.90;;;14.70;99.90;;;;;;5091352;28;20082;-79
2023/10/01 01:20:46;;;;;;;19.92;7.60;;;14.70;99.90;;;;;;5093659;28;20487;-79
2023/10/01 01:23:21;;;;;;;24.27;7.82;;;14.70;99.90;;;;;;5092331;28;20036;-80
2023/10/01 01:25:49;;;;;;;22.70;8.52;;;14.70;99.90;;;;;;5092529;28;20491;-80
2023/10/01 01:28:24;;;;;;;24.98;9.18;;;14.70;99.90;;;;;;5093688;28;20051;-80
2023/10/01 01:30:50;;;;;;;20.75;8.43;;;14.70;99.90;;;;;;5092783;28;20051;-80
2023/10/01 01:33:21;;;;;;;28.10;8.63;;;14.70;99.90;;;;;;5093991;28;20056;-79
2023/10/01 01:35:50;;;;;;;22.75;9.48;;;14.60;99.90;;;;;;5093711;28;20051;-80
2023/10/01 01:38:17;;;;;;;24.95;9.07;;;14.70;99.90;;;;;;5093642;28;20608;-80
2023/10/01 01:40:47;;;;;;;24.83;8.25;;;14.70;99.90;;;;;;5092641;28;20048;-80
2023/10/01 01:43:16;;;;;;;33.67;9.50;;;14.70;99.90;;;;;;5093637;28;20051;-80
2023/10/01 01:45:46;;;;;;;24.63;8.98;;;14.70;99.90;;;;;;5092426;28;20043;-80
2023/10/01 01:50:58;;;;;;;36.00;9.63;;;14.70;99.90;;;;;;5093474;28;20131;-80
2023/10/01 01:53:34;;;;;;;24.17;9.05;;;14.60;99.90;;;;;;5092271;28;20059;-80
2023/10/01 01:56:04;;;;;;;26.45;9.63;;;14.70;99.90;;;;;;5092359;28;20051;-79
2023/10/01 01:58:30;;;;;;;28.25;8.80;;;14.70;99.90;;;;;;5093722;28;20044;-80
2023/10/01 02:01:08;;;;;;;22.13;9.23;;;14.60;99.90;;;;;;5093375;28;20051;-80
2023/10/01 02:03:38;;;;;;;32.58;10.60;;;14.70;99.90;;;;;;5092216;28;20040;-79
2023/10/01 02:06:07;;;;;;;25.70;10.60;;;14.70;99.90;;;;;;5093230;28;20050;-79
2023/10/01 02:08:54;;;;;;;24.88;9.65;;;14.70;99.90;;;;;;5093424;28;20064;-79
2023/10/01 02:11:20;;;;;;;29.88;10.18;;;14.70;99.90;;;;;;5093382;28;20032;-79
2023/10/01 02:13:50;;;;;;;24.20;10.60;;;14.70;99.90;;;;;;5092024;28;20056;-79
2023/10/01 02:16:35;;;;;;;25.92;10.13;;;14.70;99.90;;;;;;5092031;28;20063;-80
2023/10/01 02:19:19;;;;;;;34.88;11.70;;;14.70;99.90;;;;;;5091690;28;20075;-80
2023/10/01 02:21:49;;;;;;;25.40;9.95;;;14.60;99.90;;;;;;5093201;28;20052;-80
2023/10/01 02:24:37;;;;;;;24.27;9.75;;;14.70;99.90;;;;;;5093098;28;20051;-80
2023/10/01 02:27:04;;;;;;;26.05;9.75;;;14.70;99.90;;;;;;5093147;28;20052;-80
2023/10/01 02:29:45;;;;;;;25.92;11.23;;;14.60;99.90;;;;;;5095694;28;20040;-80
2023/10/01 02:32:15;;;;;;;28.02;10.68;;;14.70;99.90;;;;;;5096883;28;20174;-79
2023/10/01 02:34:42;;;;;;;25.90;10.23;;;14.70;99.90;;;;;;5095809;28;20044;-80
2023/10/01 02:37:09;;;;;;;24.10;11.00;;;14.70;99.90;;;;;;5096817;28;20040;-80
2023/10/01 02:39:37;;;;;;;27.58;11.55;;;14.60;99.90;;;;;;5095477;28;20121;-80
2023/10/01 02:44:33;;;;;;;21.58;10.40;;;14.70;99.90;;;;;;5096634;28;20055;-79
2023/10/01 02:47:20;;;;;;;29.48;12.68;;;14.70;99.90;;;;;;5096540;28;20044;-80
2023/10/01 02:49:53;;;;;;;31.48;12.63;;;14.70;99.90;;;;;;5096414;28;20054;-80
2023/10/01 02:52:36;;;;;;;30.45;12.32;;;14.60;99.90;;;;;;5096393;28;20044;-79
2023/10/01 02:55:16;;;;;;;32.53;13.15;;;14.70;99.90;;;;;;5095127;28;20044;-79
2023/10/01 02:57:42;;;;;;;33.28;13.25;;;14.70;99.90;;;;;;5095413;28;20498;-80
2023/10/01 03:02:43;;;;;;;28.15;12.95;;;14.60;99.90;;;;;;5096408;28;20047;-80
2023/10/01 03:07:57;;;;;;;32.38;14.07;;;14.60;99.90;;;;;;5096225;28;20044;-79
2023/10/01 03:10:26;;;;;;;35.33;15.95;;;14.70;99.90;;;;;;5096168;28;20032;-80
2023/10/01 03:12:56;;;;;;;33.38;15.95;;;14.70;99.90;;;;;;5094842;28;20060;-79
2023/10/01 03:15:26;;;;;;;34.95;16.00;;;14.70;99.90;;;;;;5094637;28;20119;-80
2023/10/01 03:18:07;;;;;;;33.92;15.00;;;14.70;99.90;;;;;;5094381;28;20055;-79
2023/10/01 03:23:13;;;;;;;38.83;16.88;;;14.70;99.90;;;;;;5095886;28;20054;-80
2023/10/01 03:25:41;;;;;;;39.53;16.58;;;14.70;99.90;;;;;;5095729;28;20063;-80
2023/10/01 03:28:25;;;;;;;29.95;16.25;;;14.70;99.90;;;;;;5095763;28;20054;-79
2023/10/01 03:31:08;;;;;;;39.58;16.67;;;14.70;99.90;;;;;;5094711;28;20408;-79
2023/10/01 03:33:40;;;;;;;39.00;17.38;;;14.70;99.90;;;;;;5096230;28;20068;-80
2023/10/01 03:36:09;;;;;;;33.22;16.73;;;14.70;99.90;;;;;;5094272;28;20049;-80
2023/10/01 03:38:39;;;;;;;38.05;17.90;;;14.70;99.90;;;;;;5094258;28;20052;-80
2023/10/01 03:41:08;;;;;;;37.92;17.42;;;14.70;99.90;;;;;;5093368;28;20403;-80
2023/10/01 03:43:35;;;;;;;40.38;17.83;;;14.70;99.90;;;;;;5095540;28;20051;-79
2023/10/01 03:51:28;;;;;;;34.03;19.15;;;14.70;99.90;;;;;;5095378;28;20047;-80
2023/10/01 03:54:03;;;;;;;34.97;18.33;;;14.70;99.90;;;;;;5094098;28;20396;-79
2023/10/01 03:56:33;;;;;;;37.40;18.35;;;14.70;99.90;;;;;;5095188;28;20032;-79
2023/10/01 03:59:00;;;;;;;42.42;18.63;;;14.70;99.90;;;;;;5093798;28;20123;-80
2023/10/01 04:01:58;;;;;;;39.35;20.23;;;14.70;99.90;;;;;;5095398;28;20510;-80
2023/10/01 04:04:20;;;;;;;45.15;19.40;;;14.70;99.90;;;;;;5094848;28;20044;-79
2023/10/01 04:06:46;;;;;;;36.08;18.25;;;14.70;99.90;;;;;;5094839;28;20366;-80
2023/10/01 04:09:18;;;;;;;40.08;18.80;;;14.70;99.90;;;;;;5093853;28;20048;-80
2023/10/01 04:11:51;;;;;;;33.38;17.77;;;14.80;99.90;;;;;;5093858;28;20472;-79
2023/10/01 04:14:17;;;;;;;42.97;19.80;;;14.80;99.90;;;;;;5095008;28;20071;-80
2023/10/01 04:16:46;;;;;;;39.42;18.40;;;14.80;99.90;;;;;;5094891;28;20114;-80
2023/10/01 04:19:18;;;;;;;38.72;17.08;;;14.80;99.90;;;;;;5093203;28;20060;-80
2023/10/01 04:21:50;;;;;;;36.80;17.43;;;14.80;99.90;;;;;;5094826;28;20055;-80
2023/10/01 04:24:19;;;;;;;38.58;17.88;;;14.80;99.90;;;;;;5093596;28;20220;-80
2023/10/01 04:26:46;;;;;;;43.00;17.75;;;14.80;99.90;;;;;;5093122;28;20551;-80
2023/10/01 04:29:16;;;;;;;44.38;17.02;;;14.80;99.90;;;;;;5093578;28;20063;-79
2023/10/01 04:31:42;;;;;;;39.10;17.60;;;14.90;99.90;;;;;;5094637;28;20048;-79
2023/10/01 04:34:12;;;;;;;34.40;16.35;;;14.90;99.90;;;;;;5093215;28;20042;-79
2023/10/01 04:36:44;;;;;;;36.33;17.38;;;14.90;99.90;;;;;;5094519;28;20051;-79
2023/10/01 04:39:10;;;;;;;35.13;16.27;;;14.90;99.90;;;;;;5093158;28;20048;-79
2023/10/01 04:41:37;;;;;;;47.47;18.85;;;14.90;99.90;;;;;;5093129;28;20298;-79
2023/10/01 04:44:07;;;;;;;34.83;18.50;;;14.90;99.90;;;;;;5093126;28;20056;-79
2023/10/01 04:46:40;;;;;;;36.03;17.33;;;14.90;99.90;;;;;;5093967;28;20036;-79
2023/10/01 04:49:27;;;;;;;39.33;17.02;;;14.90;99.90;;;;;;5092921;28;20051;-79
2023/10/01 04:51:58;;;;;;;35.35;17.15;;;14.90;99.90;;;;;;5093044;28;20044;-79
2023/10/01 04:54:25;;;;;;;44.92;18.65;;;14.90;99.90;;;;;;5094168;28;20135;-79
2023/10/01 04:56:51;;;;;;;36.47;18.15;;;14.90;99.90;;;;;;5094148;28;20040;-79
2023/10/01 04:59:18;;;;;;;40.25;17.77;;;14.90;99.90;;;;;;5092658;28;20046;-79
2023/10/01 05:01:47;;;;;;;40.90;18.17;;;14.90;99.90;;;;;;5094162;28;20119;-79
2023/10/01 05:04:14;;;;;;;34.17;17.23;;;15.00;99.90;;;;;;5094068;28;20044;-80
2023/10/01 05:06:43;;;;;;;44.55;17.88;;;14.90;99.90;;;;;;5093972;28;20036;-79
2023/10/01 05:09:10;;;;;;;39.53;18.25;;;14.90;99.90;;;;;;5092653;28;20472;-79
2023/10/01 05:11:35;;;;;;;44.92;19.85;;;14.90;99.90;;;;;;5092657;28;20051;-79
2023/10/01 05:14:04;;;;;;;44.40;19.95;;;14.90;99.90;;;;;;5093942;28;20051;-79
2023/10/01 05:16:32;;;;;;;51.70;19.40;;;14.80;99.90;;;;;;5092516;28;20071;-79
2023/10/01 05:19:09;;;;;;;45.65;20.48;;;14.90;99.90;;;;;;5092257;28;20062;-79
2023/10/01 05:21:49;;;;;;;46.00;21.00;;;14.90;99.90;;;;;;5093867;28;20044;-79
2023/10/01 05:24:35;;;;;;;48.70;21.52;;;14.80;99.90;;;;;;5092705;28;20157;-79
2023/10/01 05:27:08;;;;;;;44.50;19.88;;;14.80;99.90;;;;;;5093786;28;20079;-79
2023/10/01 05:29:34;;;;;;;46.53;22.17;;;14.80;99.90;;;;;;5092499;28;20058;-79
2023/10/01 05:32:01;;;;;;;41.53;19.10;;;14.80;99.90;;;;;;5092667;28;20081;-79
2023/10/01 05:34:28;;;;;;;51.97;21.63;;;14.70;99.90;;;;;;5093638;28;20434;-79
2023/10/01 05:37:08;;;;;;;43.40;19.35;;;14.80;99.90;;;;;;5092496;28;20052;-79
2023/10/01 05:39:57;;;;;;;47.72;19.60;;;14.80;99.90;;;;;;5092545;28;20059;-79
2023/10/01 05:42:28;;;;;;;44.88;19.73;;;14.70;99.90;;;;;;5092597;28;20052;-79
2023/10/01 05:44:59;;;;;;;45.58;19.73;;;14.70;99.90;;;;;;5092343;28;20039;-79
2023/10/01 05:50:12;;;;;;;47.03;20.67;;;14.70;99.90;;;;;;5093385;28;20450;-79
2023/10/01 05:52:40;;;;;;;43.92;19.45;;;14.80;99.90;;;;;;5093255;28;20460;-79
2023/10/01 05:55:12;;;;;;;40.13;19.83;;;14.70;99.90;;;;;;5091776;28;20044;-79
2023/10/01 05:57:38;;;;;;;41.42;19.73;;;14.70;99.90;;;;;;5093068;28;20093;-79
2023/10/01 06:00:16;;;;;;;45.22;20.20;;;14.70;99.90;;;;;;5091496;28;20054;-80
2023/10/01 06:02:48;;;;;;;47.38;20.05;;;14.70;99.90;;;;;;5091433;28;20127;-79
2023/10/01 06:05:25;;;;;;;45.15;20.40;;;14.70;99.90;;;;;;5095276;28;20472;-79
2023/10/01 06:07:55;;;;;;;46.72;21.05;;;14.60;99.90;;;;;;5097211;28;20055;-79
2023/10/01 06:10:26;;;;;;;45.25;21.63;;;14.60;99.90;;;;;;5095816;28;20050;-79
2023/10/01 06:12:56;;;;;;;47.10;22.15;;;14.60;99.90;;;;;;5097304;28;20564;-79
2023/10/01 06:15:25;;;;;;;48.83;21.30;;;14.60;99.90;;;;;;5095744;28;20048;-79
2023/10/01 06:17:51;;;;;;;48.65;22.40;;;14.60;99.90;;;;;;5096954;28;20044;-79
2023/10/01 06:20:26;;;;;;;42.78;20.58;;;14.60;99.90;;;;;;5096808;28;20105;-79
2023/10/01 06:22:55;;;;;;;46.97;22.25;;;14.60;99.90;;;;;;5097208;28;20098;-78
2023/10/01 06:25:40;;;;;;;45.22;20.80;;;14.60;99.90;;;;;;5095541;28;20126;-78
2023/10/01 06:28:09;;;;;;;43.67;21.33;;;14.60;99.90;;;;;;5095586;28;20127;-78
2023/10/01 06:30:37;;;;;;;41.30;20.85;;;14.60;99.90;;;;;;5096654;28;20070;-79
2023/10/01 06:33:03;;;;;;;49.13;20.95;;;14.60;99.90;;;;;;5095658;28;20062;-78
2023/10/01 06:35:29;;;;;;;43.40;21.58;;;14.60;99.90;;;;;;5095292;28;20044;-79
2023/10/01 06:37:54;;;;;;;48.10;21.73;;;14.70;99.90;;;;;;5095596;28;20059;-79
2023/10/01 06:40:32;;;;;;;44.08;21.75;;;14.70;99.90;;;;;;5096597;28;20097;-79
2023/10/01 06:43:01;;;;;;;44.80;21.38;;;14.70;99.90;;;;;;5095456;28;20109;-79
2023/10/01 06:45:39;;;;;;;44.35;19.42;;;14.70;99.90;;;;;;5096595;28;20055;-78
2023/10/01 06:48:15;;;;;;;50.55;20.67;;;14.70;99.90;;;;;;5095131;28;20048;-79
2023/10/01 06:50:43;;;;;;;48.60;21.92;;;14.70;99.90;;;;;;5091225;28;20051;-78
2023/10/01 06:53:10;;;;;;;46.50;21.33;;;14.70;99.90;;;;;;5085021;28;20032;-77
2023/10/01 06:55:36;;;;;;;53.15;22.33;;;14.70;99.90;;;;;;5074682;28;20052;-77
2023/10/01 06:58:06;;;;;;;46.28;21.27;;;14.70;99.90;;;;;;5074426;28;20052;-77
2023/10/01 07:00:35;;;;;;;49.25;23.05;;;14.70;99.90;;;;;;5074724;28;20044;-77
2023/10/01 07:03:18;;;;;;;44.40;21.73;;;14.80;99.90;;;;;;5079052;28;20395;-76
2023/10/01 07:05:45;;;;;;;45.88;21.60;;;14.70;99.90;;;;;;5094862;28;20063;-76
2023/10/01 07:08:12;;;;;;;49.72;22.08;;;14.70;99.90;;;;;;5094445;28;20494;-77
2023/10/01 07:10:38;;;;;;;44.85;21.23;;;14.80;99.90;;;;;;5096075;28;20048;-76
2023/10/01 07:13:08;;;;;;;45.22;21.63;;;14.80;99.90;;;;;;5094398;28;20050;-76
2023/10/01 07:15:39;;;;;;;49.65;21.40;;;14.80;99.90;;;;;;5093473;28;20048;-76
2023/10/01 07:18:19;;;;;;;46.78;20.67;;;14.80;99.90;;;;;;5094175;28;20048;-77
2023/10/01 07:20:49;;;;;;;46.05;20.98;;;14.80;99.90;;;;;;5094276;28;20048;-76
2023/10/01 07:23:15;;;;;;;45.20;19.35;;;14.80;99.90;;;;;;5094179;28;20174;-76
2023/10/01 07:25:44;;;;;;;45.50;19.85;;;14.90;99.90;;;;;;5095507;28;20040;-77
2023/10/01 07:28:12;;;;;;;51.45;20.75;;;14.90;99.90;;;;;;5094095;28;20044;-76
2023/10/01 07:30:45;;;;;;;46.25;19.92;;;14.90;99.90;;;;;;5094180;28;20511;-76
2023/10/01 07:33:16;;;;;;;44.10;19.45;;;15.00;99.90;;;;;;5095449;28;20040;-76
2023/10/01 07:35:44;;;;;;;47.67;19.30;;;15.00;99.90;;;;;;5093971;28;20162;-76
2023/10/01 07:38:14;;;;;;;46.33;18.08;;;14.90;99.90;;;;;;5093921;28;20108;-76
2023/10/01 07:40:57;;;;;;;49.80;18.45;;;14.90;99.90;;;;;;5093803;28;20126;-76
2023/10/01 07:43:30;;;;;;;48.35;17.80;;;15.00;99.90;;;;;;5095322;28;20043;-76
2023/10/01 07:45:58;;;;;;;44.05;18.15;;;15.00;99.90;;;;;;5094125;28;20110;-76
2023/10/01 07:48:27;;;;;;;50.03;19.65;;;15.00;99.90;;;;;;5094862;28;20518;-75
2023/10/01 07:50:54;;;;;;;50.53;19.13;;;15.00;99.90;;;;;;5093909;28;20123;-77
2023/10/01 07:53:20;;;;;;;47.03;18.35;;;14.90;99.90;;;;;;5095136;28;20119;-76
2023/10/01 07:55:48;;;;;;;47.65;18.10;;;15.00;99.90;;;;;;5093835;28;20174;-77
2023/10/01 07:58:44;;;;;;;43.65;17.27;;;15.00;99.90;;;;;;5094961;28;20067;-76
2023/10/01 08:04:05;;;;;;;46.13;16.30;;;15.00;99.90;;;;;;5094733;28;20052;-76
2023/10/01 08:06:41;;;;;;;37.22;16.58;;;15.00;99.90;;;;;;5093337;28;20048;-76
2023/10/01 08:09:12;;;;;;;43.35;17.50;;;15.10;99.90;;;;;;5094868;28;20090;-76
2023/10/01 08:11:58;;;;;;;42.13;16.08;;;15.10;99.90;;;;;;5094717;28;20062;-77
2023/10/01 08:14:33;;;;;;;36.65;16.02;;;15.00;99.90;;;;;;5093507;28;20543;-76
2023/10/01 08:17:02;;;;;;;43.05;15.73;;;15.10;99.90;;;;;;5093120;28;20055;-75
2023/10/01 08:19:54;;;;;;;41.13;15.95;;;15.20;99.90;;;;;;5093009;28;20419;-78
2023/10/01 08:22:23;;;;;;;43.00;17.50;;;15.20;99.90;;;;;;5093088;28;20052;-78
2023/10/01 08:24:50;;;;;;;40.85;16.48;;;15.20;99.90;;;;;;5093084;28;20131;-77
2023/10/01 08:27:32;;;;;;;46.22;17.13;;;15.20;99.90;;;;;;5093821;28;20051;-76
2023/10/01 08:32:49;;;;;;;42.20;16.35;;;15.20;99.90;;;;;;5094388;28;20064;-76
2023/10/01 08:35:32;;;;;;;39.05;15.90;;;15.20;99.90;;;;;;5092933;28;20046;-76
2023/10/01 08:37:59;;;;;;;43.55;15.68;;;15.20;99.90;;;;;;5094416;28;20079;-76
2023/10/01 08:40:27;;;;;;;44.35;15.43;;;15.20;99.90;;;;;;5092976;28;20089;-76
2023/10/01 08:42:58;;;;;;;42.00;16.33;;;15.20;99.90;;;;;;5092979;28;20059;-77
2023/10/01 08:45:37;;;;;;;39.50;14.90;;;15.30;99.90;;;;;;5092956;28;20086;-76
2023/10/01 08:48:07;;;;;;;37.13;15.02;;;15.40;99.90;;;;;;5093830;28;20046;-75
2023/10/01 08:50:37;;;;;;;40.67;16.48;;;15.40;99.90;;;;;;5094094;28;20036;-76
2023/10/01 08:53:10;;;;;;;31.88;15.18;;;15.50;99.90;;;;;;5094133;28;20044;-77
2023/10/01 08:56:04;;;;;;;32.28;13.95;;;15.50;99.90;;;;;;5092421;28;20369;-75
2023/10/01 08:58:27;;;;;;;38.17;14.93;;;15.60;99.90;;;;;;5093561;28;20513;-76
2023/10/01 09:01:13;;;;;;;43.33;15.02;;;15.60;99.90;;;;;;5093904;28;20043;-76
2023/10/01 09:03:48;;;;;;;35.20;14.48;;;15.70;99.90;;;;;;5093843;28;20048;-76
2023/10/01 09:06:27;;;;;;;38.65;13.73;;;15.80;99.90;;;;;;5092163;28;20040;-76
2023/10/01 09:08:54;;;;;;;33.95;14.95;;;15.90;99.90;;;;;;5093481;28;20443;-75
2023/10/01 09:11:47;;;;;;;37.13;14.52;;;16.00;99.90;;;;;;5093451;28;20049;-76
2023/10/01 09:14:17;;;;;;;40.50;14.65;;;16.10;99.90;;;;;;5092241;28;20051;-77
2023/10/01 09:16:44;;;;;;;36.15;14.20;;;16.10;99.90;;;;;;5092365;28;20567;-77
2023/10/01 09:19:41;;;;;;;40.10;13.88;;;16.10;99.90;;;;;;5093355;28;20088;-76
2023/10/01 09:22:15;;;;;;;31.30;14.20;;;16.20;99.90;;;;;;5092077;28;20407;-76
2023/10/01 09:24:43;;;;;;;39.47;15.07;;;16.30;99.90;;;;;;5092122;28;20063;-77
2023/10/01 09:27:19;;;;;;;42.88;15.00;;;16.40;99.90;;;;;;5092063;28;20123;-76
2023/10/01 09:29:48;;;;;;;34.58;13.45;;;16.60;99.90;;;;;;5092225;28;20052;-77
2023/10/01 09:32:14;;;;;;;33.80;14.57;;;16.60;99.90;;;;;;5092212;28;20079;-77
2023/10/01 09:34:47;;;;;;;38.05;14.88;;;16.60;99.90;;;;;;5092010;28;20044;-76
2023/10/01 09:37:18;;;;;;;34.53;15.23;;;16.70;99.90;;;;;;5093420;28;20048;-75
2023/10/01 09:39:44;;;;;;;36.95;14.93;;;16.80;99.90;;;;;;5095414;28;20101;-76
2023/10/01 09:42:24;;;;;;;39.67;14.43;;;16.80;99.90;;;;;;5096068;28;20080;-75
2023/10/01 09:44:53;;;;;;;45.22;14.60;;;16.90;99.90;;;;;;5097368;28;20465;-77
2023/10/01 09:47:27;;;;;;;33.65;13.95;;;17.00;99.90;;;;;;5097419;28;20119;-76
2023/10/01 09:49:54;;;;;;;41.30;15.82;;;17.00;99.90;;;;;;5097407;28;20079;-77
2023/10/01 09:52:48;;;;;;;36.63;14.70;;;17.10;99.90;;;;;;5097067;28;20093;-76
2023/10/01 09:55:26;;;;;;;41.28;14.65;;;17.30;99.90;;;;;;5097109;28;20399;-77
2023/10/01 09:57:55;;;;;;;42.78;15.32;;;17.40;99.90;;;;;;5096999;28;20511;-77
2023/10/01 10:00:21;;;;;;;44.42;14.90;;;17.50;99.90;;;;;;5096984;28;20502;-76
2023/10/01 10:02:53;;;;;;;37.92;14.75;;;17.60;99.90;;;;;;5095684;28;20048;-77
2023/10/01 10:05:26;;;;;;;33.45;14.50;;;17.60;99.90;;;;;;5095607;28;20071;-77
2023/10/01 10:08:13;;;;;;;33.65;14.50;;;17.70;99.90;;;;;;5097164;28;20040;-77
2023/10/01 10:10:48;;;;;;;40.53;14.40;;;17.70;99.90;;;;;;5095952;28;20080;-76
2023/10/01 10:13:46;;;;;;;40.58;14.00;;;17.70;99.90;;;;;;5095570;28;20048;-76
2023/10/01 10:16:32;;;;;;;38.83;14.13;;;17.70;99.90;;;;;;5096968;28;20067;-76
2023/10/01 10:19:20;;;;;;;40.30;14.10;;;17.80;99.90;;;;;;5095422;28;20048;-77
2023/10/01 10:24:32;;;;;;;38.72;14.10;;;17.90;99.90;;;;;;5096671;28;20570;-76
2023/10/01 10:27:01;;;;;;;41.22;14.95;;;17.90;99.90;;;;;;5094791;28;20052;-76
2023/10/01 10:30:00;;;;;;;35.60;13.02;;;18.00;99.90;;;;;;5083055;28;20148;-76
2023/10/01 10:32:30;;;;;;;37.72;14.55;;;18.00;99.90;;;;;;5076185;28;20048;-76
2023/10/01 10:35:05;;;;;;;38.78;14.15;;;18.10;99.90;;;;;;5076217;28;20048;-76
2023/10/01 10:37:36;;;;;;;38.40;13.77;;;18.10;99.90;;;;;;5076101;28;20395;-77
2023/10/01 10:40:12;;;;;;;37.60;14.40;;;18.20;99.90;;;;;;5075036;28;20106;-76
2023/10/01 10:43:00;;;;;;;38.95;14.30;;;18.20;99.90;;;;;;5075938;28;20558;-75
2023/10/01 10:45:31;;;;;;;40.22;14.32;;;18.30;99.90;;;;;;5075029;28;20055;-76
2023/10/01 10:48:04;;;;;;;41.67;14.07;;;18.30;99.90;;;;;;5074830;28;20076;-76
2023/10/01 10:50:48;;;;;;;38.17;13.60;;;18.30;99.90;;;;;;5075760;28;20041;-76
2023/10/01 10:53:17;;;;;;;37.55;12.88;;;18.30;99.90;;;;;;5074876;28;20507;-76
2023/10/01 10:56:04;;;;;;;38.42;13.70;;;18.20;99.90;;;;;;5075047;28;20056;-76
2023/10/01 10:58:39;;;;;;;35.90;13.05;;;18.30;99.90;;;;;;5074794;28;20080;-75
2023/10/01 11:01:25;;;;;;;40.10;12.73;;;18.30;99.90;;;;;;5076050;28;20044;-76
2023/10/01 11:03:57;;;;;;;37.47;12.98;;;18.30;99.90;;;;;;5074687;28;20400;-76
2023/10/01 11:06:29;;;;;;;34.92;13.35;;;18.30;99.90;;;;;;5074114;28;20052;-76
2023/10/01 11:08:56;;;;;;;36.27;12.87;;;18.40;99.90;;;;;;5074369;28;20065;-76
2023/10/01 11:11:41;;;;;;;36.53;13.30;;;18.40;99.90;;;;;;5074183;28;20639;-76
2023/10/01 11:14:17;;;;;;;36.25;13.27;;;18.50;99.90;;;;;;5075443;28;20041;-76
2023/10/01 11:16:45;;;;;;;35.03;13.27;;;18.60;99.90;;;;;;5074578;28;20056;-76
2023/10/01 11:19:12;;;;;;;33.92;13.55;;;18.50;99.90;;;;;;5075294;28;20105;-76
2023/10/01 11:21:58;;;;;;;34.97;13.68;;;18.60;99.90;;;;;;5073527;28;20645;-76
2023/10/01 11:24:25;;;;;;;37.80;13.27;;;18.60;99.90;;;;;;5080397;28;20135;-77
2023/10/01 11:27:19;;;;;;;39.47;13.10;;;18.60;99.90;;;;;;5076771;28;20086;-76
2023/10/01 11:30:28;;;;;;;37.10;12.50;;;18.60;99.90;;;;;;5073864;28;20048;-77
2023/10/01 11:35:59;;;;;;;39.50;11.88;;;18.60;99.90;;;;;;5074016;28;20090;-77
2023/10/01 11:38:26;;;;;;;36.53;12.93;;;18.60;99.90;;;;;;5073509;28;20400;-76
2023/10/01 11:41:07;;;;;;;38.80;13.68;;;18.60;99.90;;;;;;5073592;28;20052;-76
2023/10/01 11:44:00;;;;;;;37.25;12.68;;;18.60;99.90;;;;;;5075168;28;20075;-76
2023/10/01 11:49:34;;;;;;;35.13;12.98;;;18.60;99.90;;;;;;5073630;28;20053;-76
2023/10/01 11:52:20;;;;;;;37.40;12.73;;;18.60;99.90;;;;;;5073446;28;20396;-75
2023/10/01 11:54:52;;;;;;;34.35;11.88;;;18.60;99.90;;;;;;5073739;28;20135;-76
2023/10/01 11:57:22;;;;;;;42.75;12.43;;;18.60;99.90;;;;;;5073484;28;20106;-76
2023/10/01 12:00:01;;;;;;;36.72;12.15;;;18.60;99.90;;;;;;5074528;28;20052;-76
2023/10/01 12:02:31;;;;;;;38.45;12.75;;;18.60;99.90;;;;;;5073930;28;20052;-76
2023/10/01 12:04:58;;;;;;;33.88;12.02;;;18.70;99.90;;;;;;5073348;28;20070;-76
2023/10/01 12:07:32;;;;;;;37.35;14.10;;;18.70;99.90;;;;;;5074632;28;20040;-76
2023/10/01 12:09:58;;;;;;;35.00;13.93;;;18.70;99.90;;;;;;5074759;28;20235;-76
2023/10/01 12:12:28;;;;;;;38.00;12.90;;;18.70;99.90;;;;;;5074032;28;20472;-77
2023/10/01 12:15:33;;;;;;;40.30;13.93;;;18.90;99.90;;;;;;5074287;28;20041;-76
2023/10/01 12:17:46;;;;;;;38.28;14.48;;;18.90;99.90;;;;;;5074077;28;20186;-76
2023/10/01 12:20:22;;;;;;;31.92;13.70;;;18.90;99.90;;;;;;5072860;28;20063;-76
2023/10/01 12:25:58;;;;;;;30.52;12.50;;;19.00;99.90;;;;;;5074349;28;20053;-76
2023/10/01 12:28:27;;;;;;;34.92;12.77;;;19.00;99.90;;;;;;5073877;28;20055;-76
2023/10/01 12:31:09;;;;;;;29.88;13.00;;;19.00;99.90;;;;;;5072821;28;20063;-76
2023/10/01 12:33:40;;;;;;;37.65;13.65;;;19.10;99.90;;;;;;5072848;28;20484;-76
2023/10/01 12:36:51;;;;;;;30.88;13.80;;;19.10;99.90;;;;;;5074119;28;20047;-76
2023/10/01 12:44:30;;;;;;;36.63;13.73;;;19.10;99.90;;;;;;5073751;28;20048;-76
2023/10/01 12:47:00;;;;;;;35.50;13.43;;;19.10;99.90;;;;;;5073666;28;20586;-76
2023/10/01 12:49:27;;;;;;;34.13;13.07;;;19.20;99.90;;;;;;5072349;28;20120;-76
2023/10/01 12:51:53;;;;;;;35.65;13.23;;;19.20;99.90;;;;;;5073751;28;20055;-76
2023/10/01 12:54:25;;;;;;;41.05;13.18;;;19.30;99.90;;;;;;5073725;28;20115;-76
2023/10/01 12:57:12;;;;;;;38.75;14.30;;;19.40;99.90;;;;;;5073470;28;20415;-76
2023/10/01 12:59:40;;;;;;;33.17;12.57;;;19.40;99.90;;;;;;5072387;28;20162;-76
2023/10/01 13:07:38;;;;;;;29.48;12.63;;;19.60;99.90;;;;;;5088924;28;20425;-76
2023/10/01 13:10:06;;;;;;;29.70;11.70;;;19.70;99.90;;;;;;5072292;28;20052;-76
2023/10/01 13:12:39;;;;;;;36.22;11.00;;;19.70;99.90;;;;;;5073602;28;20036;-76
2023/10/01 13:15:17;;;;;;;33.90;11.85;;;19.70;99.90;;;;;;5071984;28;20480;-76
2023/10/01 13:17:46;;;;;;;30.48;11.63;;;19.70;99.90;;;;;;5072318;28;20150;-76
2023/10/01 13:20:22;;;;;;;31.88;11.35;;;19.80;99.90;;;;;;5073002;28;20049;-76
2023/10/01 13:22:51;;;;;;;32.00;12.00;;;19.90;99.90;;;;;;5073216;28;20547;-76
2023/10/01 13:25:23;;;;;;;32.38;12.10;;;19.90;99.90;;;;;;5071810;28;20049;-76
2023/10/01 13:28:01;;;;;;;33.65;12.32;;;19.90;99.90;;;;;;5073251;28;20047;-76
2023/10/01 13:31:35;;;;;;;25.75;10.55;;;19.90;99.90;;;;;;5071848;28;20033;-76
2023/10/01 13:33:53;;;;;;;31.73;11.30;;;19.90;99.90;;;;;;5064646;28;20398;-76
2023/10/01 13:36:23;;;;;;;36.92;11.60;;;19.90;99.90;;;;;;5072864;28;20102;-76
2023/10/01 13:39:14;;;;;;;33.03;11.32;;;19.90;99.90;;;;;;5073765;28;20098;-76
2023/10/01 14:09:09;;;;;;;32.38;13.05;;;19.80;99.90;;;;;;5067546;28;20053;-76
2023/10/01 14:11:39;;;;;;;34.55;13.63;;;19.80;99.90;;;;;;5073048;28;20074;-77
2023/10/01 14:14:07;;;;;;;32.42;14.07;;;19.90;99.90;;;;;;5073011;28;20054;-77